Time;durP1;ratioP1;P1;durP2;ratioP2;P2;SDS_P1;SDS_P2;PMS_P1;PMS_P2;Temp;Humidity;BMP_temperature;BMP_pressure;BME280_temperature;BME280_humidity;BME280_pressure;Samples;Min_cycle;Max_cycle;Signal;HPM_P1;HPM_P2
2022/05/17 00:05:17;;;;;;;1.10;0.70;;;17.20;52.90;19.20;94396.00;;;;10394196;28;45793;-64
2022/05/17 00:10:40;;;;;;;1.08;0.60;;;17.20;52.70;19.20;94376.00;;;;10394448;28;45122;-63
2022/05/17 00:16:02;;;;;;;0.95;0.68;;;17.20;52.80;19.20;94393.00;;;;10394843;28;45228;-64
2022/05/17 00:21:22;;;;;;;2.13;0.70;;;17.20;52.80;19.20;94372.00;;;;10400658;28;45194;-63
2022/05/17 00:26:44;;;;;;;0.43;0.40;;;17.20;52.70;19.20;94390.00;;;;10400452;28;45284;-63
2022/05/17 00:32:06;;;;;;;1.60;0.80;;;17.20;52.70;19.20;94360.00;;;;10400105;28;45236;-63
2022/05/17 00:37:27;;;;;;;1.60;0.55;;;17.20;52.70;19.20;94362.00;;;;10400220;28;45928;-64
2022/05/17 00:42:49;;;;;;;1.00;0.52;;;17.20;52.60;19.20;94352.00;;;;10399197;28;45105;-63
2022/05/17 00:48:10;;;;;;;0.90;0.60;;;17.20;52.50;19.30;94364.00;;;;10399137;28;45385;-63
2022/05/17 00:53:34;;;;;;;0.47;0.47;;;17.20;52.60;19.20;94368.00;;;;10399085;28;45198;-64
2022/05/17 00:59:00;;;;;;;0.93;0.60;;;17.20;52.50;19.20;94359.00;;;;10397771;28;45908;-64
2022/05/17 01:04:23;;;;;;;0.70;0.55;;;17.20;52.60;19.20;94340.00;;;;10394992;28;45265;-64
2022/05/17 01:09:44;;;;;;;0.93;0.63;;;17.20;52.50;19.20;94350.00;;;;10398413;28;45208;-64
2022/05/17 01:15:09;;;;;;;0.82;0.55;;;17.10;52.60;19.20;94351.00;;;;10398154;28;45213;-64
2022/05/17 01:20:29;;;;;;;0.95;0.50;;;17.10;53.20;19.20;94324.00;;;;10398786;28;45803;-64
2022/05/17 01:25:51;;;;;;;1.52;0.50;;;17.20;52.60;19.20;94345.00;;;;10398280;28;45195;-64
2022/05/17 01:31:12;;;;;;;0.80;0.40;;;17.10;52.50;19.20;94337.00;;;;10397530;28;45268;-63
2022/05/17 01:36:32;;;;;;;1.00;0.55;;;17.10;52.60;19.20;94333.00;;;;10397362;28;45121;-63
2022/05/17 01:41:54;;;;;;;1.33;0.50;;;17.10;52.60;19.20;94334.00;;;;10397400;28;45153;-64
2022/05/17 01:47:15;;;;;;;0.75;0.52;;;17.10;52.60;19.20;94322.00;;;;10397636;28;45470;-64
2022/05/17 01:52:36;;;;;;;1.80;0.60;;;17.10;52.50;19.10;94329.00;;;;10396942;28;45890;-64
2022/05/17 01:57:58;;;;;;;0.90;0.60;;;17.10;52.60;19.10;94321.00;;;;10397249;28;45114;-64
2022/05/17 02:03:18;;;;;;;0.60;0.40;;;17.10;52.60;19.10;94318.00;;;;10397261;28;45380;-63
2022/05/17 02:08:39;;;;;;;0.80;0.55;;;17.10;52.50;19.10;94328.00;;;;10396821;28;45261;-63
2022/05/17 02:14:01;;;;;;;0.93;0.50;;;17.10;52.50;19.10;94322.00;;;;10396887;28;45136;-63
2022/05/17 02:19:23;;;;;;;1.13;0.50;;;17.10;52.60;19.10;94325.00;;;;10396429;28;45701;-63
2022/05/17 02:24:43;;;;;;;1.45;0.60;;;17.10;52.60;19.10;94315.00;;;;10396797;28;45235;-63
2022/05/17 02:30:09;;;;;;;3.53;0.60;;;17.10;52.60;19.10;94324.00;;;;10396134;28;45181;-63
2022/05/17 02:35:29;;;;;;;0.55;0.47;;;17.10;52.60;19.10;94311.00;;;;10394733;28;45193;-63
2022/05/17 02:40:50;;;;;;;0.80;0.50;;;17.00;52.50;19.10;94325.00;;;;10396174;28;45755;-64
2022/05/17 02:46:12;;;;;;;0.98;0.50;;;17.00;52.40;19.10;94320.00;;;;10395216;28;45840;-63
2022/05/17 02:51:34;;;;;;;0.80;0.50;;;17.00;52.40;19.10;94321.00;;;;10396031;28;45188;-63
2022/05/17 02:56:54;;;;;;;0.70;0.60;;;17.00;52.50;19.10;94325.00;;;;10395302;28;45813;-64
2022/05/17 03:02:16;;;;;;;0.90;0.60;;;17.00;52.50;19.10;94319.00;;;;10395328;28;45720;-64
2022/05/17 03:07:38;;;;;;;0.90;0.55;;;17.00;52.50;19.10;94329.00;;;;10395048;28;45853;-63
2022/05/17 03:13:01;;;;;;;0.85;0.60;;;17.00;52.60;19.10;94329.00;;;;10394033;28;46637;-64
2022/05/17 03:18:22;;;;;;;0.95;0.65;;;17.00;52.50;19.10;94323.00;;;;10394463;28;45888;-64
2022/05/17 03:23:43;;;;;;;1.27;0.68;;;17.00;52.50;19.10;94313.00;;;;10394562;28;45277;-64
2022/05/17 03:29:03;;;;;;;1.33;0.68;;;17.00;52.60;19.00;94320.00;;;;10394485;28;45180;-63
2022/05/17 03:34:25;;;;;;;0.55;0.50;;;17.00;52.50;19.00;94315.00;;;;10394349;28;45248;-63
2022/05/17 03:39:46;;;;;;;1.60;0.70;;;17.00;52.60;19.00;94328.00;;;;10394390;28;45258;-63
2022/05/17 03:45:08;;;;;;;1.30;0.65;;;17.00;52.60;19.00;94319.00;;;;10394249;28;45193;-63
2022/05/17 03:50:30;;;;;;;1.80;0.75;;;17.00;52.60;19.00;94317.00;;;;10394495;28;45263;-63
2022/05/17 03:55:50;;;;;;;1.83;0.77;;;17.00;52.60;19.00;94331.00;;;;10401031;28;45131;-63
2022/05/17 04:01:12;;;;;;;0.73;0.40;;;17.00;52.70;19.00;94334.00;;;;10401095;28;45887;-63
2022/05/17 04:06:34;;;;;;;0.88;0.40;;;17.00;52.60;19.00;94332.00;;;;10400705;28;45784;-62
2022/05/17 04:11:55;;;;;;;0.60;0.50;;;17.00;52.70;19.10;94336.00;;;;10400737;28;45161;-63
2022/05/17 04:17:15;;;;;;;1.95;0.70;;;17.10;52.70;19.20;94332.00;;;;10400550;28;45283;-62
2022/05/17 04:22:37;;;;;;;2.22;0.50;;;17.20;52.70;19.20;94327.00;;;;10400664;28;45144;-62
2022/05/17 04:27:57;;;;;;;1.33;0.70;;;17.20;53.30;19.30;94345.00;;;;10400093;28;45211;-62
2022/05/17 04:33:18;;;;;;;2.17;0.63;;;17.20;52.60;19.30;94350.00;;;;10400044;28;45231;-62
2022/05/17 04:38:40;;;;;;;1.48;0.73;;;17.20;52.60;19.30;94358.00;;;;10400050;28;45422;-63
2022/05/17 04:44:00;;;;;;;1.55;0.70;;;17.30;52.50;19.30;94351.00;;;;10399755;28;45350;-63
2022/05/17 04:49:22;;;;;;;1.40;0.60;;;17.30;52.50;19.30;94363.00;;;;10399425;28;45686;-63
2022/05/17 04:54:44;;;;;;;1.80;0.70;;;17.30;52.50;19.40;94373.00;;;;10399446;28;45097;-62
2022/05/17 05:00:09;;;;;;;2.25;0.70;;;17.30;52.50;19.40;94371.00;;;;10399553;28;45456;-63
2022/05/17 05:05:30;;;;;;;2.55;0.80;;;17.30;52.50;19.40;94372.00;;;;10397686;28;45109;-63
2022/05/17 05:10:52;;;;;;;1.63;0.50;;;17.30;52.50;19.40;94373.00;;;;10398753;28;45115;-63
2022/05/17 05:16:14;;;;;;;1.52;0.60;;;17.40;52.50;19.40;94380.00;;;;10398543;28;45212;-63
2022/05/17 05:21:35;;;;;;;2.33;0.80;;;17.40;52.50;19.40;94385.00;;;;10398408;28;45689;-63
2022/05/17 05:26:58;;;;;;;1.10;0.65;;;17.40;52.40;19.40;94389.00;;;;10398105;28;45207;-63
2022/05/17 05:32:19;;;;;;;1.08;0.70;;;17.40;52.40;19.50;94393.00;;;;10397670;28;45832;-63
2022/05/17 05:37:39;;;;;;;1.55;0.90;;;17.40;52.40;19.50;94376.00;;;;10398039;28;45869;-63
2022/05/17 05:43:01;;;;;;;1.23;0.70;;;17.50;52.40;19.50;94397.00;;;;10397456;28;45262;-63
2022/05/17 05:48:22;;;;;;;0.82;0.63;;;17.40;52.40;19.50;94391.00;;;;10397753;28;45101;-63
2022/05/17 05:53:42;;;;;;;2.00;0.80;;;17.40;52.30;19.50;94392.00;;;;10397362;28;45252;-63
2022/05/17 05:59:04;;;;;;;1.00;0.70;;;17.50;52.40;19.50;94391.00;;;;10397257;28;45382;-63
2022/05/17 06:04:27;;;;;;;1.10;0.65;;;17.50;52.40;19.50;94396.00;;;;10397000;28;45260;-63
2022/05/17 06:09:47;;;;;;;1.58;0.60;;;17.50;52.50;19.50;94406.00;;;;10396648;28;45676;-63
2022/05/17 06:15:11;;;;;;;2.10;0.63;;;17.50;52.40;19.50;94412.00;;;;10396530;28;45490;-63
2022/05/17 06:20:32;;;;;;;1.38;0.70;;;17.50;52.40;19.60;94402.00;;;;10396325;28;45816;-62
2022/05/17 06:25:52;;;;;;;1.63;0.75;;;17.50;52.40;19.60;94405.00;;;;10393903;28;45161;-63
2022/05/17 06:31:14;;;;;;;1.08;0.80;;;17.50;52.30;19.60;94419.00;;;;10396485;28;45164;-62
2022/05/17 06:36:35;;;;;;;1.45;0.77;;;17.50;52.40;19.60;94409.00;;;;10395475;28;45280;-62
2022/05/17 06:41:56;;;;;;;1.35;1.00;;;17.50;52.40;19.60;94403.00;;;;10395936;28;45240;-63
2022/05/17 06:47:18;;;;;;;1.88;0.80;;;17.60;52.50;19.60;94413.00;;;;10395640;28;45864;-63
2022/05/17 06:52:40;;;;;;;2.03;0.73;;;17.60;52.40;19.60;94422.00;;;;10395790;28;45175;-63
2022/05/17 06:58:02;;;;;;;1.00;0.70;;;17.50;52.40;19.60;94414.00;;;;10395522;28;45345;-63
2022/05/17 07:03:25;;;;;;;1.35;0.77;;;17.60;52.40;19.70;94419.00;;;;10346456;28;45968;-62
2022/05/17 07:08:45;;;;;;;1.05;0.75;;;17.60;52.30;19.70;94423.00;;;;10353946;28;45892;-64
2022/05/17 07:14:06;;;;;;;1.95;0.60;;;17.70;52.10;19.80;94427.00;;;;10354061;28;45199;-63
2022/05/17 07:19:28;;;;;;;1.40;0.70;;;17.70;52.20;19.80;94420.00;;;;10354230;28;45181;-62
2022/05/17 07:24:48;;;;;;;2.47;0.80;;;17.70;52.20;19.80;94429.00;;;;10353825;28;45232;-64
2022/05/17 07:30:10;;;;;;;1.58;0.45;;;17.70;52.50;19.80;94439.00;;;;10353653;28;45387;-63
2022/05/17 07:35:33;;;;;;;1.90;0.80;;;17.70;52.50;19.80;94434.00;;;;10353959;28;45198;-63
2022/05/17 07:40:53;;;;;;;1.08;0.50;;;17.70;53.00;19.70;94436.00;;;;10354274;28;45202;-63
2022/05/17 07:46:14;;;;;;;1.40;0.70;;;17.70;52.90;19.70;94441.00;;;;10353361;28;45860;-63
2022/05/17 07:51:36;;;;;;;2.00;0.80;;;17.60;53.10;19.70;94448.00;;;;10354369;28;45801;-63
2022/05/17 07:56:56;;;;;;;0.82;0.70;;;17.60;52.90;19.70;94426.00;;;;10353733;28;45226;-63
2022/05/17 08:02:17;;;;;;;2.55;0.80;;;17.60;53.00;19.70;94435.00;;;;10353313;28;45193;-64
2022/05/17 08:07:39;;;;;;;1.30;0.80;;;17.60;52.90;19.60;94422.00;;;;10353117;28;45153;-63
2022/05/17 08:13:00;;;;;;;1.55;0.95;;;17.60;52.90;19.70;94438.00;;;;10353067;28;45229;-63
2022/05/17 08:18:21;;;;;;;1.85;0.70;;;17.60;52.60;19.70;94425.00;;;;10352742;28;45167;-63
2022/05/17 08:23:43;;;;;;;2.17;0.80;;;17.60;52.80;19.80;94432.00;;;;10353018;28;45988;-63
2022/05/17 08:29:04;;;;;;;1.67;0.80;;;17.60;53.10;19.70;94421.00;;;;10352877;28;45401;-64
2022/05/17 08:34:24;;;;;;;3.13;0.80;;;17.70;52.40;19.70;94424.00;;;;10352297;28;45780;-64
2022/05/17 08:39:46;;;;;;;1.73;0.93;;;17.70;53.40;19.70;94415.00;;;;10356392;28;45876;-63
2022/05/17 08:45:17;;;;;;;0.88;0.70;;;17.70;53.00;19.70;94411.00;;;;10358325;28;45296;-65
2022/05/17 08:50:40;;;;;;;1.67;0.70;;;17.60;53.00;19.70;94426.00;;;;10358898;28;45194;-63
2022/05/17 08:56:02;;;;;;;0.70;0.60;;;17.60;53.30;19.70;94411.00;;;;10358176;28;45185;-63
2022/05/17 09:01:28;;;;;;;1.58;0.68;;;17.60;52.80;19.70;94420.00;;;;10358472;28;45161;-63
2022/05/17 09:06:58;;;;;;;1.15;0.60;;;17.60;52.90;19.70;94418.00;;;;10357985;28;46117;-63
2022/05/17 09:12:29;;;;;;;1.58;0.52;;;17.60;52.80;19.70;94414.00;;;;10355989;28;45236;-63
2022/05/17 09:17:49;;;;;;;1.50;0.90;;;17.60;53.80;19.60;94404.00;;;;10353937;28;45167;-63
2022/05/17 09:23:12;;;;;;;3.05;0.98;;;17.60;53.00;19.60;94414.00;;;;10356911;28;45701;-63
2022/05/17 09:28:54;;;;;;;1.58;0.90;;;17.60;53.20;19.60;94393.00;;;;10356976;28;45157;-63
2022/05/17 09:34:23;;;;;;;1.02;0.82;;;17.60;53.10;19.60;94411.00;;;;10357171;28;45221;-63
2022/05/17 09:39:48;;;;;;;2.10;0.88;;;17.60;53.00;19.60;94414.00;;;;10353152;28;45272;-63
2022/05/17 09:45:16;;;;;;;2.50;1.10;;;17.60;53.10;19.60;94407.00;;;;10356485;28;45219;-62
2022/05/17 09:56:27;;;;;;;2.25;1.17;;;17.50;52.90;19.60;94395.00;;;;10356259;28;45299;-63
2022/05/17 10:01:50;;;;;;;1.67;0.82;;;17.50;53.00;19.60;94399.00;;;;10356532;28;45670;-63
2022/05/17 10:07:16;;;;;;;1.67;0.90;;;17.50;52.90;19.60;94395.00;;;;10355774;28;45276;-62
2022/05/17 10:12:39;;;;;;;1.40;0.88;;;17.50;52.90;19.60;94392.00;;;;10353101;28;45737;-62
2022/05/17 10:18:10;;;;;;;2.45;0.80;;;17.50;52.90;19.60;94376.00;;;;10348737;28;45896;-63
2022/05/17 10:23:38;;;;;;;1.30;0.85;;;17.50;52.80;19.60;94362.00;;;;10352692;28;45288;-63
2022/05/17 10:29:06;;;;;;;2.88;1.10;;;17.50;52.90;19.60;94373.00;;;;10353302;28;45765;-62
2022/05/17 10:34:41;;;;;;;1.30;0.68;;;17.50;52.90;19.60;94355.00;;;;10355589;28;45186;-62
2022/05/17 10:40:08;;;;;;;1.70;0.90;;;17.50;52.70;19.60;94367.00;;;;10355553;28;45162;-63
2022/05/17 10:45:33;;;;;;;;;;;17.50;52.80;19.60;94354.00;;;;10354818;28;45252;-62
2022/05/17 10:51:05;;;;;;;1.73;0.70;;;17.50;52.60;19.60;94365.00;;;;10355583;28;45329;-62
2022/05/17 10:56:44;;;;;;;1.60;0.90;;;17.50;52.60;19.60;94364.00;;;;10353179;28;45856;-62
2022/05/17 11:02:20;;;;;;;2.10;0.70;;;17.50;52.50;19.60;94348.00;;;;10352630;28;45167;-62
2022/05/17 11:07:55;;;;;;;1.27;0.80;;;17.50;52.60;19.60;94343.00;;;;10350845;28;45467;-62
2022/05/17 11:13:25;;;;;;;2.22;0.90;;;17.50;52.40;19.60;94338.00;;;;10349974;28;45145;-62
2022/05/17 11:18:52;;;;;;;1.20;0.70;;;17.50;52.40;19.60;94320.00;;;;10353380;28;45275;-62
2022/05/17 11:24:34;;;;;;;1.88;0.70;;;17.50;52.30;19.60;94336.00;;;;10351806;28;45143;-63
2022/05/17 11:30:18;;;;;;;1.35;0.70;;;17.50;52.40;19.60;94318.00;;;;10346228;28;45260;-63
2022/05/17 11:35:50;;;;;;;1.67;0.70;;;17.50;53.00;19.60;94324.00;;;;10352721;28;45254;-62
2022/05/17 11:41:17;;;;;;;2.72;0.98;;;17.50;52.40;19.60;94312.00;;;;10353221;28;45183;-63
2022/05/17 11:46:47;;;;;;;;;;;17.50;52.40;19.60;94314.00;;;;10353626;28;45256;-62
2022/05/17 11:52:36;;;;;;;2.88;0.82;;;17.50;52.30;19.60;94316.00;;;;10353346;28;45172;-62
2022/05/17 11:58:05;;;;;;;2.47;0.70;;;17.50;52.10;19.60;94306.00;;;;10352388;28;45768;-62
2022/05/17 12:04:00;;;;;;;1.50;0.90;;;17.50;52.30;19.60;94310.00;;;;10312353;28;45892;-62
2022/05/17 12:09:31;;;;;;;1.13;0.80;;;17.50;52.30;19.60;94291.00;;;;10312304;28;45167;-63
2022/05/17 12:15:13;;;;;;;1.35;0.73;;;17.50;52.30;19.60;94306.00;;;;10317472;28;45954;-63
2022/05/17 12:20:49;;;;;;;1.80;0.73;;;17.50;52.20;19.60;94306.00;;;;10319454;28;45686;-63
2022/05/17 12:26:24;;;;;;;1.48;0.90;;;17.60;52.10;19.60;94284.00;;;;10353386;28;45271;-63
2022/05/17 12:31:46;;;;;;;1.30;0.70;;;17.50;52.40;19.50;94292.00;;;;10350163;28;45171;-63
2022/05/17 12:37:12;;;;;;;2.33;0.80;;;17.50;52.80;19.60;94299.00;;;;10358968;28;45157;-64
2022/05/17 12:48:21;;;;;;;2.08;1.00;;;17.50;53.40;19.50;94268.00;;;;10359080;28;45199;-64
2022/05/17 12:53:45;;;;;;;1.25;0.82;;;17.50;53.80;19.50;94279.00;;;;10359324;28;45178;-64
2022/05/17 12:59:09;;;;;;;1.15;0.85;;;17.50;53.70;19.50;94275.00;;;;10357784;28;45152;-64
2022/05/17 13:04:33;;;;;;;1.83;0.80;;;17.50;53.40;19.50;94273.00;;;;10357387;28;45776;-64
2022/05/17 13:09:59;;;;;;;1.92;0.77;;;17.50;53.10;19.60;94262.00;;;;10358851;28;45256;-64
2022/05/17 13:15:25;;;;;;;0.75;0.70;;;17.50;53.00;19.60;94253.00;;;;10358568;28;45169;-64
2022/05/17 13:20:59;;;;;;;1.58;0.90;;;17.50;52.90;19.60;94262.00;;;;10357338;28;45902;-64
2022/05/17 13:26:34;;;;;;;2.65;0.90;;;17.50;52.80;19.50;94250.00;;;;10357032;28;45212;-64
2022/05/17 13:32:20;;;;;;;0.95;0.70;;;17.50;52.60;19.60;94245.00;;;;10357735;28;45825;-66
2022/05/17 13:38:11;;;;;;;2.08;0.60;;;17.60;52.40;19.60;94249.00;;;;10334980;28;45156;-64
2022/05/17 13:43:41;;;;;;;1.67;0.70;;;17.60;52.40;19.60;94244.00;;;;10356927;28;45256;-64
2022/05/17 13:49:19;;;;;;;1.13;0.73;;;17.60;52.30;19.60;94237.00;;;;10357697;28;45218;-64
2022/05/17 13:55:03;;;;;;;1.23;0.75;;;17.60;52.20;19.60;94222.00;;;;10357039;28;45254;-64
2022/05/17 14:00:46;;;;;;;1.75;0.70;;;17.60;52.10;19.60;94228.00;;;;10356268;28;45940;-63
2022/05/17 14:06:51;;;;;;;1.40;0.70;;;17.60;52.00;19.60;94218.00;;;;10356602;28;45176;-64
2022/05/17 14:12:38;;;;;;;1.50;0.70;;;17.60;52.10;19.60;94220.00;;;;10356891;28;45931;-64
2022/05/17 14:17:59;;;;;;;1.55;0.70;;;17.60;52.10;19.60;94220.00;;;;10356452;28;45244;-64
2022/05/17 14:23:20;;;;;;;1.13;0.70;;;17.60;52.00;19.60;94212.00;;;;10355775;28;45202;-64
2022/05/17 14:28:43;;;;;;;1.83;0.93;;;17.60;52.00;19.60;94214.00;;;;10355777;28;45172;-64
2022/05/17 14:34:05;;;;;;;0.57;0.52;;;17.60;52.00;19.70;94216.00;;;;10355519;28;45110;-63
2022/05/17 14:39:27;;;;;;;1.23;0.73;;;17.60;52.00;19.70;94214.00;;;;10355393;28;45875;-63
2022/05/17 14:44:49;;;;;;;1.10;0.75;;;17.60;52.00;19.70;94202.00;;;;10354797;28;45756;-64
2022/05/17 14:50:11;;;;;;;2.22;0.70;;;17.70;51.90;19.70;94190.00;;;;10355411;28;45252;-63
2022/05/17 14:55:32;;;;;;;1.15;0.60;;;17.70;52.00;19.70;94198.00;;;;10354865;28;45177;-64
2022/05/17 15:00:54;;;;;;;1.00;0.63;;;17.70;52.00;19.70;94185.00;;;;10355310;28;45286;-64
2022/05/17 15:06:15;;;;;;;0.80;0.70;;;17.70;51.90;19.80;94179.00;;;;10355033;28;45976;-65
2022/05/17 15:11:37;;;;;;;1.83;0.90;;;17.70;51.90;19.80;94177.00;;;;10354998;28;45793;-64
2022/05/17 15:16:59;;;;;;;2.38;0.88;;;17.70;52.10;19.80;94193.00;;;;10354411;28;45772;-64
2022/05/17 15:22:20;;;;;;;1.00;0.77;;;17.80;52.30;19.80;94172.00;;;;10354182;28;45229;-64
2022/05/17 15:27:41;;;;;;;1.52;0.73;;;17.80;52.50;19.80;94185.00;;;;10353868;28;45179;-64
2022/05/17 15:33:04;;;;;;;2.50;0.73;;;17.80;52.20;19.90;94182.00;;;;10351561;28;45190;-64
2022/05/17 15:38:31;;;;;;;0.77;0.70;;;17.80;52.20;19.90;94162.00;;;;10352158;28;45132;-64
2022/05/17 15:43:53;;;;;;;1.15;0.80;;;17.90;52.00;19.90;94177.00;;;;10334971;28;45714;-65
2022/05/17 15:54:54;;;;;;;1.88;0.95;;;17.90;51.80;19.90;94178.00;;;;10400193;28;45205;-60
2022/05/17 16:00:16;;;;;;;1.55;0.60;;;17.90;52.00;19.90;94181.00;;;;10435119;28;45126;-60
2022/05/17 16:05:38;;;;;;;1.42;0.70;;;17.90;52.10;20.00;94169.00;;;;10442524;28;45154;-61
2022/05/17 16:11:47;;;;;;;1.38;0.80;;;17.90;51.70;20.00;94184.00;;;;10442385;28;45174;-60
2022/05/17 16:16:40;;;;;;;1.15;0.70;;;18.00;51.70;20.00;94183.00;;;;10441362;28;45191;-60
2022/05/17 16:22:08;;;;;;;1.33;0.80;;;18.00;51.70;20.00;94169.00;;;;10441981;28;45200;-60
2022/05/17 16:27:28;;;;;;;1.00;0.77;;;18.00;51.80;20.10;94181.00;;;;10441384;28;45223;-61
2022/05/17 16:32:54;;;;;;;2.58;0.95;;;18.00;51.80;20.10;94168.00;;;;10442311;28;45153;-62
2022/05/17 16:38:18;;;;;;;2.03;0.68;;;18.00;51.90;20.10;94166.00;;;;10440566;28;45202;-61
2022/05/17 16:43:41;;;;;;;2.35;0.82;;;18.10;51.80;20.10;94158.00;;;;10442082;28;45224;-61
2022/05/17 16:49:06;;;;;;;1.10;0.70;;;18.10;51.60;20.20;94170.00;;;;10439881;28;45866;-61
2022/05/17 16:54:28;;;;;;;1.10;0.60;;;18.10;51.30;20.20;94171.00;;;;10441097;28;45785;-61
2022/05/17 16:59:49;;;;;;;1.13;0.60;;;18.20;51.20;20.20;94171.00;;;;10437220;28;45129;-61
2022/05/17 17:05:15;;;;;;;2.50;0.77;;;18.20;51.10;20.20;94182.00;;;;10436656;28;45207;-60
2022/05/17 17:10:37;;;;;;;1.55;0.70;;;18.20;50.90;20.20;94173.00;;;;10440096;28;45742;-61
2022/05/17 17:15:57;;;;;;;1.02;0.70;;;18.20;50.90;20.20;94182.00;;;;10439580;28;45215;-61
2022/05/17 17:21:18;;;;;;;0.90;0.70;;;18.20;50.90;20.20;94182.00;;;;10439873;28;45164;-61
2022/05/17 17:26:42;;;;;;;1.60;0.90;;;18.20;50.70;20.20;94186.00;;;;10434594;28;45484;-61
2022/05/17 17:37:41;;;;;;;1.90;0.93;;;18.20;50.60;20.20;94189.00;;;;10439247;28;45237;-61
2022/05/17 17:43:03;;;;;;;1.63;0.70;;;18.20;50.60;20.20;94189.00;;;;10439401;28;45237;-60
2022/05/17 17:48:24;;;;;;;1.48;0.75;;;18.10;50.60;20.20;94180.00;;;;10438459;28;45145;-61
2022/05/17 17:53:45;;;;;;;0.82;0.50;;;18.10;50.60;20.10;94197.00;;;;10439161;28;45792;-60
2022/05/17 17:59:07;;;;;;;1.40;0.80;;;18.10;50.70;20.10;94187.00;;;;10438635;28;45732;-58
2022/05/17 18:04:29;;;;;;;0.80;0.70;;;18.00;50.70;20.10;94204.00;;;;10437871;28;45374;-60
2022/05/17 18:09:50;;;;;;;0.98;0.55;;;18.00;50.80;20.10;94205.00;;;;10423562;28;45317;-60
2022/05/17 18:15:12;;;;;;;0.95;0.60;;;18.00;50.80;20.00;94204.00;;;;10432787;28;45246;-61
2022/05/17 18:20:34;;;;;;;1.30;0.90;;;18.00;50.90;20.00;94208.00;;;;10432017;28;45244;-61
2022/05/17 18:25:56;;;;;;;0.82;0.63;;;17.90;50.90;20.00;94213.00;;;;10436451;28;45736;-61
2022/05/17 18:31:21;;;;;;;1.17;0.70;;;18.00;51.00;20.00;94204.00;;;;10437330;28;45426;-60
2022/05/17 18:36:42;;;;;;;1.10;0.70;;;17.90;51.00;20.00;94214.00;;;;10437574;28;45697;-61
2022/05/17 18:42:03;;;;;;;1.23;0.73;;;17.90;51.10;20.00;94213.00;;;;10436906;28;45109;-61
2022/05/17 18:47:32;;;;;;;0.68;0.65;;;17.90;51.10;20.00;94214.00;;;;10436261;28;45176;-61
2022/05/17 18:52:55;;;;;;;1.40;0.75;;;17.80;51.10;19.90;94212.00;;;;10436842;28;45164;-61
2022/05/17 18:58:16;;;;;;;1.50;0.70;;;17.90;51.20;19.90;94217.00;;;;10435926;28;45162;-60
2022/05/17 19:03:46;;;;;;;1.10;0.70;;;17.90;51.30;19.90;94212.00;;;;10436692;28;45208;-61
2022/05/17 19:14:46;;;;;;;0.93;0.77;;;17.80;51.40;19.90;94219.00;;;;10436475;28;45771;-61
2022/05/17 19:20:09;;;;;;;1.33;0.77;;;17.80;51.40;19.90;94246.00;;;;10435658;28;45207;-61
2022/05/17 19:25:31;;;;;;;0.73;0.73;;;17.80;51.50;19.90;94246.00;;;;10430271;28;45570;-60
2022/05/17 19:30:52;;;;;;;0.85;0.70;;;17.80;51.60;19.80;94237.00;;;;10433855;28;45210;-60
2022/05/17 19:36:14;;;;;;;0.95;0.75;;;17.70;51.70;19.80;94241.00;;;;10435880;28;45244;-60
2022/05/17 19:41:34;;;;;;;1.17;0.70;;;17.70;51.70;19.80;94259.00;;;;10435714;28;45760;-60
2022/05/17 19:46:55;;;;;;;1.67;0.80;;;17.70;51.70;19.80;94260.00;;;;10434469;28;45230;-60
2022/05/17 19:52:18;;;;;;;1.17;0.80;;;17.70;51.80;19.80;94261.00;;;;10435959;28;45221;-60
2022/05/17 19:57:39;;;;;;;2.13;0.95;;;17.70;52.00;19.80;94262.00;;;;10434812;28;45239;-61
2022/05/17 20:03:00;;;;;;;1.92;0.80;;;17.70;51.90;19.80;94280.00;;;;10435293;28;45237;-60
2022/05/17 20:08:23;;;;;;;2.70;0.80;;;17.70;52.10;19.80;94283.00;;;;10434656;28;45271;-60
2022/05/17 20:13:43;;;;;;;2.38;1.10;;;17.70;52.20;19.70;94279.00;;;;10435469;28;45207;-60
2022/05/17 20:19:04;;;;;;;1.30;0.95;;;17.60;52.20;19.70;94276.00;;;;10434605;28;45143;-59
2022/05/17 20:24:28;;;;;;;1.63;0.80;;;17.60;52.30;19.70;94285.00;;;;10434937;28;45112;-60
2022/05/17 20:29:49;;;;;;;1.27;1.00;;;17.60;52.30;19.70;94290.00;;;;10434804;28;45229;-59
2022/05/17 20:35:11;;;;;;;1.42;0.90;;;17.60;52.40;19.70;94295.00;;;;10438895;28;45152;-59
2022/05/17 20:40:33;;;;;;;1.55;0.98;;;17.60;52.30;19.70;94299.00;;;;10441395;28;45268;-59
2022/05/17 20:48:17;;;;;;;3.03;1.00;;;17.60;52.30;19.70;94295.00;;;;10441993;28;45772;-59
2022/05/17 20:51:37;;;;;;;1.38;0.80;;;17.50;52.30;19.70;94281.00;;;;10441480;28;45097;-59
2022/05/17 20:57:02;;;;;;;1.20;0.90;;;17.60;52.50;19.60;94299.00;;;;10441209;28;45855;-59
2022/05/17 21:02:23;;;;;;;1.30;1.00;;;17.50;52.40;19.70;94302.00;;;;10440996;28;45228;-59
2022/05/17 21:07:44;;;;;;;1.63;1.00;;;17.60;52.60;19.60;94303.00;;;;10441039;28;45354;-59
2022/05/17 21:13:06;;;;;;;1.30;0.80;;;17.60;52.60;19.60;94308.00;;;;10440632;28;45164;-60
2022/05/17 21:18:27;;;;;;;2.58;1.02;;;17.60;52.60;19.60;94305.00;;;;10440375;28;45173;-59
2022/05/17 21:23:48;;;;;;;2.03;1.10;;;17.60;52.60;19.60;94311.00;;;;10440440;28;45089;-59
2022/05/17 21:29:10;;;;;;;1.77;1.00;;;17.50;52.60;19.60;94308.00;;;;10440109;28;45232;-61
2022/05/17 21:34:31;;;;;;;1.85;1.00;;;17.50;52.60;19.60;94295.00;;;;10440306;28;45846;-60
2022/05/17 21:39:52;;;;;;;1.58;1.00;;;17.50;52.60;19.60;94311.00;;;;10439622;28;45835;-59
2022/05/17 21:45:15;;;;;;;1.85;1.00;;;17.50;52.50;19.60;94306.00;;;;10439031;28;45183;-60
2022/05/17 21:50:39;;;;;;;1.90;1.08;;;17.50;52.60;19.60;94306.00;;;;10380705;22;45191;-60
2022/05/17 21:56:00;;;;;;;1.83;1.05;;;17.50;52.60;19.60;94320.00;;;;10356684;28;45207;-60
2022/05/17 22:01:23;;;;;;;1.80;1.15;;;17.50;52.60;19.60;94320.00;;;;10395268;28;45859;-62
2022/05/17 22:06:43;;;;;;;1.50;1.10;;;17.50;52.60;19.60;94320.00;;;;10396390;28;45165;-59
2022/05/17 22:17:45;;;;;;;1.83;1.00;;;17.50;52.60;19.60;94325.00;;;;10396127;28;45159;-60
2022/05/17 22:23:06;;;;;;;2.67;1.10;;;17.50;52.70;19.50;94325.00;;;;10395732;28;45151;-61
2022/05/17 22:28:26;;;;;;;2.17;1.10;;;17.50;52.60;19.50;94328.00;;;;10395577;28;45144;-61
2022/05/17 22:33:49;;;;;;;1.48;0.93;;;17.50;52.60;19.50;94315.00;;;;10395005;28;45202;-60
2022/05/17 22:39:10;;;;;;;1.10;1.00;;;17.40;52.60;19.50;94332.00;;;;10393838;28;45874;-59
2022/05/17 22:50:11;;;;;;;1.38;1.00;;;17.40;52.50;19.50;94324.00;;;;10394936;28;45419;-60
2022/05/17 22:55:31;;;;;;;1.30;1.00;;;17.40;52.60;19.50;94306.00;;;;10395152;28;45874;-61
2022/05/17 23:00:52;;;;;;;2.58;1.10;;;17.40;52.50;19.50;94307.00;;;;10395484;28;45181;-59
2022/05/17 23:06:14;;;;;;;1.88;1.00;;;17.40;52.60;19.50;94323.00;;;;10393547;28;45213;-60
2022/05/17 23:11:35;;;;;;;1.80;1.00;;;17.40;52.50;19.50;94313.00;;;;10394454;28;45251;-59
2022/05/17 23:16:56;;;;;;;1.60;1.00;;;17.40;52.50;19.50;94329.00;;;;10393262;28;45886;-60
2022/05/17 23:22:18;;;;;;;0.88;0.88;;;17.40;52.60;19.40;94320.00;;;;10394608;28;45739;-60
2022/05/17 23:33:17;;;;;;;1.48;1.00;;;17.40;52.60;19.40;94328.00;;;;10393982;28;45334;-60
2022/05/17 23:38:39;;;;;;;2.17;1.10;;;17.40;52.60;19.50;94333.00;;;;10392482;28;45843;-60
2022/05/17 23:44:00;;;;;;;2.33;1.10;;;17.40;52.60;19.40;94325.00;;;;10393095;28;45258;-60
2022/05/17 23:49:22;;;;;;;1.67;0.98;;;17.40;52.60;19.40;94329.00;;;;10393890;28;45919;-60
2022/05/17 23:54:44;;;;;;;2.30;1.10;;;17.40;52.60;19.40;94336.00;;;;10393656;28;45171;-60
